sensor_id;sensor_type;location;lat;lon;timestamp;temperature;humidity
68648;SHT31;55632;51.962;16.116;2023-03-05T00:02:28;1.12;71.47
68648;SHT31;55632;51.962;16.116;2023-03-05T00:07:29;1.12;71.34
68648;SHT31;55632;51.962;16.116;2023-03-05T00:12:31;1.14;71.24
68648;SHT31;55632;51.962;16.116;2023-03-05T00:17:35;1.14;71.12
68648;SHT31;55632;51.962;16.116;2023-03-05T00:22:36;1.15;70.98
68648;SHT31;55632;51.962;16.116;2023-03-05T00:27:39;1.12;70.81
68648;SHT31;55632;51.962;16.116;2023-03-05T00:32:46;1.15;70.80
68648;SHT31;55632;51.962;16.116;2023-03-05T00:37:48;1.14;70.75
68648;SHT31;55632;51.962;16.116;2023-03-05T00:42:51;1.16;70.74
68648;SHT31;55632;51.962;16.116;2023-03-05T00:47:53;1.15;70.84
68648;SHT31;55632;51.962;16.116;2023-03-05T00:52:55;1.14;70.79
68648;SHT31;55632;51.962;16.116;2023-03-05T00:57:56;1.15;70.81
68648;SHT31;55632;51.962;16.116;2023-03-05T01:02:58;1.12;70.79
68648;SHT31;55632;51.962;16.116;2023-03-05T01:08:00;1.14;70.79
68648;SHT31;55632;51.962;16.116;2023-03-05T01:13:01;1.12;70.76
68648;SHT31;55632;51.962;16.116;2023-03-05T01:18:03;1.12;70.75
68648;SHT31;55632;51.962;16.116;2023-03-05T01:23:06;1.12;70.81
68648;SHT31;55632;51.962;16.116;2023-03-05T01:28:11;1.12;70.94
68648;SHT31;55632;51.962;16.116;2023-03-05T01:33:12;1.15;71.00
68648;SHT31;55632;51.962;16.116;2023-03-05T01:38:15;1.12;71.02
68648;SHT31;55632;51.962;16.116;2023-03-05T01:43:27;1.11;71.11
68648;SHT31;55632;51.962;16.116;2023-03-05T01:48:29;1.11;71.21
68648;SHT31;55632;51.962;16.116;2023-03-05T01:53:30;1.09;71.29
68648;SHT31;55632;51.962;16.116;2023-03-05T01:58:31;1.08;71.33
68648;SHT31;55632;51.962;16.116;2023-03-05T02:03:32;1.11;71.35
68648;SHT31;55632;51.962;16.116;2023-03-05T02:08:33;1.11;71.35
68648;SHT31;55632;51.962;16.116;2023-03-05T02:13:34;1.11;71.37
68648;SHT31;55632;51.962;16.116;2023-03-05T02:18:38;1.11;71.41
68648;SHT31;55632;51.962;16.116;2023-03-05T02:23:38;1.14;71.50
68648;SHT31;55632;51.962;16.116;2023-03-05T02:28:43;1.12;71.65
68648;SHT31;55632;51.962;16.116;2023-03-05T02:33:45;1.14;71.79
68648;SHT31;55632;51.962;16.116;2023-03-05T02:38:47;1.15;71.97
68648;SHT31;55632;51.962;16.116;2023-03-05T02:43:48;1.16;72.09
68648;SHT31;55632;51.962;16.116;2023-03-05T02:48:49;1.19;72.24
68648;SHT31;55632;51.962;16.116;2023-03-05T02:53:50;1.15;72.48
68648;SHT31;55632;51.962;16.116;2023-03-05T02:58:51;1.16;72.63
68648;SHT31;55632;51.962;16.116;2023-03-05T03:03:53;1.16;72.81
68648;SHT31;55632;51.962;16.116;2023-03-05T03:08:54;1.19;72.95
68648;SHT31;55632;51.962;16.116;2023-03-05T03:13:55;1.21;73.13
68648;SHT31;55632;51.962;16.116;2023-03-05T03:18:55;1.21;73.26
68648;SHT31;55632;51.962;16.116;2023-03-05T03:23:56;1.25;73.40
68648;SHT31;55632;51.962;16.116;2023-03-05T03:28:57;1.26;73.57
68648;SHT31;55632;51.962;16.116;2023-03-05T03:33:58;1.25;73.73
68648;SHT31;55632;51.962;16.116;2023-03-05T03:38:58;1.29;73.83
68648;SHT31;55632;51.962;16.116;2023-03-05T03:43:59;1.31;73.96
68648;SHT31;55632;51.962;16.116;2023-03-05T03:49:02;1.32;74.04
68648;SHT31;55632;51.962;16.116;2023-03-05T03:54:03;1.32;74.08
68648;SHT31;55632;51.962;16.116;2023-03-05T03:59:04;1.33;74.18
68648;SHT31;55632;51.962;16.116;2023-03-05T04:04:05;1.40;74.28
68648;SHT31;55632;51.962;16.116;2023-03-05T04:09:06;1.40;74.38
68648;SHT31;55632;51.962;16.116;2023-03-05T04:14:10;1.42;74.40
68648;SHT31;55632;51.962;16.116;2023-03-05T04:19:11;1.44;74.52
68648;SHT31;55632;51.962;16.116;2023-03-05T04:24:11;1.49;74.59
68648;SHT31;55632;51.962;16.116;2023-03-05T04:29:12;1.49;74.71
68648;SHT31;55632;51.962;16.116;2023-03-05T04:34:13;1.49;75.11
68648;SHT31;55632;51.962;16.116;2023-03-05T04:39:14;1.47;75.49
68648;SHT31;55632;51.962;16.116;2023-03-05T04:44:15;1.40;76.08
68648;SHT31;55632;51.962;16.116;2023-03-05T04:49:17;1.33;76.73
68648;SHT31;55632;51.962;16.116;2023-03-05T04:54:18;1.25;77.36
68648;SHT31;55632;51.962;16.116;2023-03-05T04:59:19;1.18;77.90
68648;SHT31;55632;51.962;16.116;2023-03-05T05:04:19;1.15;78.36
68648;SHT31;55632;51.962;16.116;2023-03-05T05:09:20;1.12;78.83
68648;SHT31;55632;51.962;16.116;2023-03-05T05:14:21;1.08;79.22
68648;SHT31;55632;51.962;16.116;2023-03-05T05:19:22;1.04;79.61
68648;SHT31;55632;51.962;16.116;2023-03-05T05:24:23;1.02;80.15
68648;SHT31;55632;51.962;16.116;2023-03-05T05:29:24;1.02;80.30
68648;SHT31;55632;51.962;16.116;2023-03-05T05:34:25;0.98;80.69
68648;SHT31;55632;51.962;16.116;2023-03-05T05:39:27;0.97;81.05
68648;SHT31;55632;51.962;16.116;2023-03-05T05:44:28;1.01;81.40
68648;SHT31;55632;51.962;16.116;2023-03-05T05:49:29;1.04;81.91
68648;SHT31;55632;51.962;16.116;2023-03-05T05:54:30;1.07;81.97
68648;SHT31;55632;51.962;16.116;2023-03-05T05:59:31;1.08;82.21
68648;SHT31;55632;51.962;16.116;2023-03-05T06:04:33;1.12;82.53
68648;SHT31;55632;51.962;16.116;2023-03-05T06:09:34;1.16;82.74
68648;SHT31;55632;51.962;16.116;2023-03-05T06:14:35;1.24;82.92
68648;SHT31;55632;51.962;16.116;2023-03-05T06:19:36;1.29;82.97
68648;SHT31;55632;51.962;16.116;2023-03-05T06:24:37;1.35;82.87
68648;SHT31;55632;51.962;16.116;2023-03-05T06:29:38;1.39;82.83
68648;SHT31;55632;51.962;16.116;2023-03-05T06:34:39;1.43;82.56
68648;SHT31;55632;51.962;16.116;2023-03-05T06:39:39;1.43;82.32
68648;SHT31;55632;51.962;16.116;2023-03-05T06:44:40;1.46;81.96
68648;SHT31;55632;51.962;16.116;2023-03-05T06:49:41;1.49;81.92
68648;SHT31;55632;51.962;16.116;2023-03-05T06:54:42;1.47;81.65
68648;SHT31;55632;51.962;16.116;2023-03-05T06:59:42;1.50;81.66
68648;SHT31;55632;51.962;16.116;2023-03-05T07:04:43;1.57;81.32
68648;SHT31;55632;51.962;16.116;2023-03-05T07:09:45;1.63;81.18
68648;SHT31;55632;51.962;16.116;2023-03-05T07:14:49;1.64;81.00
68648;SHT31;55632;51.962;16.116;2023-03-05T07:19:50;1.63;80.81
68648;SHT31;55632;51.962;16.116;2023-03-05T07:24:51;1.61;80.70
68648;SHT31;55632;51.962;16.116;2023-03-05T07:29:52;1.59;80.41
68648;SHT31;55632;51.962;16.116;2023-03-05T07:34:55;1.54;80.35
68648;SHT31;55632;51.962;16.116;2023-03-05T07:39:55;1.56;80.35
68648;SHT31;55632;51.962;16.116;2023-03-05T07:44:56;1.59;80.33
68648;SHT31;55632;51.962;16.116;2023-03-05T07:49:58;1.63;80.21
68648;SHT31;55632;51.962;16.116;2023-03-05T07:54:59;1.67;80.21
68648;SHT31;55632;51.962;16.116;2023-03-05T08:00:00;1.71;80.03
68648;SHT31;55632;51.962;16.116;2023-03-05T08:05:00;1.78;79.75
68648;SHT31;55632;51.962;16.116;2023-03-05T08:10:01;1.85;79.66
68648;SHT31;55632;51.962;16.116;2023-03-05T08:15:03;1.97;79.32
68648;SHT31;55632;51.962;16.116;2023-03-05T08:20:04;2.06;79.10
68648;SHT31;55632;51.962;16.116;2023-03-05T08:25:10;2.20;78.89
68648;SHT31;55632;51.962;16.116;2023-03-05T08:30:17;2.40;78.49
68648;SHT31;55632;51.962;16.116;2023-03-05T08:35:18;2.48;77.84
68648;SHT31;55632;51.962;16.116;2023-03-05T08:40:19;2.58;77.67
68648;SHT31;55632;51.962;16.116;2023-03-05T08:45:20;2.61;77.60
68648;SHT31;55632;51.962;16.116;2023-03-05T08:50:21;2.61;77.22
68648;SHT31;55632;51.962;16.116;2023-03-05T08:55:22;2.58;76.95
68648;SHT31;55632;51.962;16.116;2023-03-05T09:00:23;2.54;77.02
68648;SHT31;55632;51.962;16.116;2023-03-05T09:05:24;2.47;76.81
68648;SHT31;55632;51.962;16.116;2023-03-05T09:10:25;2.40;76.82
68648;SHT31;55632;51.962;16.116;2023-03-05T09:15:25;2.37;76.84
68648;SHT31;55632;51.962;16.116;2023-03-05T09:20:26;2.34;76.95
68648;SHT31;55632;51.962;16.116;2023-03-05T09:25:27;2.33;76.93
68648;SHT31;55632;51.962;16.116;2023-03-05T09:30:27;2.41;76.78
68648;SHT31;55632;51.962;16.116;2023-03-05T09:35:33;2.56;76.45
68648;SHT31;55632;51.962;16.116;2023-03-05T09:40:48;2.68;76.01
68648;SHT31;55632;51.962;16.116;2023-03-05T09:46:04;2.75;75.65
68648;SHT31;55632;51.962;16.116;2023-03-05T09:51:25;2.80;75.26
68648;SHT31;55632;51.962;16.116;2023-03-05T09:56:46;2.73;74.54
68648;SHT31;55632;51.962;16.116;2023-03-05T10:01:49;2.64;74.17
68648;SHT31;55632;51.962;16.116;2023-03-05T10:06:57;2.54;74.08
68648;SHT31;55632;51.962;16.116;2023-03-05T10:12:04;2.43;73.06
68648;SHT31;55632;51.962;16.116;2023-03-05T10:17:32;2.32;73.69
68648;SHT31;55632;51.962;16.116;2023-03-05T10:28:03;2.39;74.24
68648;SHT31;55632;51.962;16.116;2023-03-05T10:33:27;2.54;74.15
68648;SHT31;55632;51.962;16.116;2023-03-05T10:44:07;3.10;74.04
68648;SHT31;55632;51.962;16.116;2023-03-05T10:49:20;3.27;73.70
68648;SHT31;55632;51.962;16.116;2023-03-05T10:54:28;3.31;73.47
68648;SHT31;55632;51.962;16.116;2023-03-05T10:59:30;3.28;73.25
68648;SHT31;55632;51.962;16.116;2023-03-05T11:04:37;3.16;73.39
68648;SHT31;55632;51.962;16.116;2023-03-05T11:09:39;3.09;73.33
68648;SHT31;55632;51.962;16.116;2023-03-05T11:25:27;2.43;75.54
68648;SHT31;55632;51.962;16.116;2023-03-05T11:30:29;2.05;76.00
68648;SHT31;55632;51.962;16.116;2023-03-05T11:35:33;1.97;76.32
68648;SHT31;55632;51.962;16.116;2023-03-05T11:40:34;1.89;75.63
68648;SHT31;55632;51.962;16.116;2023-03-05T11:45:35;1.87;75.26
68648;SHT31;55632;51.962;16.116;2023-03-05T11:50:37;1.91;75.16
68648;SHT31;55632;51.962;16.116;2023-03-05T11:56:32;1.98;74.64
68648;SHT31;55632;51.962;16.116;2023-03-05T12:01:37;2.09;74.08
68648;SHT31;55632;51.962;16.116;2023-03-05T12:11:40;2.29;73.04
68648;SHT31;55632;51.962;16.116;2023-03-05T12:16:49;2.36;73.04
68648;SHT31;55632;51.962;16.116;2023-03-05T12:21:52;2.43;72.21
68648;SHT31;55632;51.962;16.116;2023-03-05T12:31:58;2.57;71.11
68648;SHT31;55632;51.962;16.116;2023-03-05T12:36:59;2.73;71.39
68648;SHT31;55632;51.962;16.116;2023-03-05T12:41:59;2.77;70.45
68648;SHT31;55632;51.962;16.116;2023-03-05T12:52:25;2.82;69.71
68648;SHT31;55632;51.962;16.116;2023-03-05T12:57:26;2.89;70.42
68648;SHT31;55632;51.962;16.116;2023-03-05T13:02:41;2.95;70.10
68648;SHT31;55632;51.962;16.116;2023-03-05T13:07:42;2.88;69.45
68648;SHT31;55632;51.962;16.116;2023-03-05T13:12:48;2.84;69.47
68648;SHT31;55632;51.962;16.116;2023-03-05T13:17:59;2.85;69.45
68648;SHT31;55632;51.962;16.116;2023-03-05T13:23:27;2.81;69.25
68648;SHT31;55632;51.962;16.116;2023-03-05T13:28:29;2.82;69.62
68648;SHT31;55632;51.962;16.116;2023-03-05T13:33:33;2.84;69.47
68648;SHT31;55632;51.962;16.116;2023-03-05T13:38:42;2.81;68.94
68648;SHT31;55632;51.962;16.116;2023-03-05T13:43:49;2.84;69.10
68648;SHT31;55632;51.962;16.116;2023-03-05T13:48:50;2.84;68.67
68648;SHT31;55632;51.962;16.116;2023-03-05T13:53:51;2.87;68.19
68648;SHT31;55632;51.962;16.116;2023-03-05T13:58:55;2.89;68.09
68648;SHT31;55632;51.962;16.116;2023-03-05T14:04:07;2.96;67.88
68648;SHT31;55632;51.962;16.116;2023-03-05T14:14:22;3.03;67.22
68648;SHT31;55632;51.962;16.116;2023-03-05T14:19:37;3.03;66.69
68648;SHT31;55632;51.962;16.116;2023-03-05T14:24:50;3.02;65.75
68648;SHT31;55632;51.962;16.116;2023-03-05T14:29:52;3.02;66.26
68648;SHT31;55632;51.962;16.116;2023-03-05T14:35:00;3.05;65.80
68648;SHT31;55632;51.962;16.116;2023-03-05T14:40:05;3.08;66.03
68648;SHT31;55632;51.962;16.116;2023-03-05T14:45:15;3.10;65.93
68648;SHT31;55632;51.962;16.116;2023-03-05T14:50:22;3.12;65.94
68648;SHT31;55632;51.962;16.116;2023-03-05T14:55:26;3.09;65.81
68648;SHT31;55632;51.962;16.116;2023-03-05T15:00:27;3.08;65.55
68648;SHT31;55632;51.962;16.116;2023-03-05T15:05:28;3.03;65.07
68648;SHT31;55632;51.962;16.116;2023-03-05T15:10:32;2.99;65.75
68648;SHT31;55632;51.962;16.116;2023-03-05T15:15:33;2.95;65.98
68648;SHT31;55632;51.962;16.116;2023-03-05T15:20:33;2.95;65.44
68648;SHT31;55632;51.962;16.116;2023-03-05T15:25:34;2.88;65.38
68648;SHT31;55632;51.962;16.116;2023-03-05T15:30:41;2.80;65.50
68648;SHT31;55632;51.962;16.116;2023-03-05T15:35:42;2.73;65.67
68648;SHT31;55632;51.962;16.116;2023-03-05T15:40:43;2.67;66.01
68648;SHT31;55632;51.962;16.116;2023-03-05T15:45:44;2.58;66.46
68648;SHT31;55632;51.962;16.116;2023-03-05T15:50:45;2.57;66.76
68648;SHT31;55632;51.962;16.116;2023-03-05T15:55:46;2.50;67.01
68648;SHT31;55632;51.962;16.116;2023-03-05T16:00:46;2.47;67.35
68648;SHT31;55632;51.962;16.116;2023-03-05T16:05:50;2.41;67.85
68648;SHT31;55632;51.962;16.116;2023-03-05T16:10:51;2.33;68.29
68648;SHT31;55632;51.962;16.116;2023-03-05T16:15:52;2.26;68.59
68648;SHT31;55632;51.962;16.116;2023-03-05T16:20:54;2.19;69.04
68648;SHT31;55632;51.962;16.116;2023-03-05T16:25:54;2.13;69.43
68648;SHT31;55632;51.962;16.116;2023-03-05T16:30:56;2.09;69.68
68648;SHT31;55632;51.962;16.116;2023-03-05T16:36:20;1.99;70.12
68648;SHT31;55632;51.962;16.116;2023-03-05T16:41:21;2.01;70.48
68648;SHT31;55632;51.962;16.116;2023-03-05T16:46:27;1.93;70.86
68648;SHT31;55632;51.962;16.116;2023-03-05T16:51:28;1.89;71.17
68648;SHT31;55632;51.962;16.116;2023-03-05T16:56:29;1.81;71.50
68648;SHT31;55632;51.962;16.116;2023-03-05T17:01:30;1.73;71.65
68648;SHT31;55632;51.962;16.116;2023-03-05T17:06:31;1.66;71.96
68648;SHT31;55632;51.962;16.116;2023-03-05T17:11:33;1.56;72.23
68648;SHT31;55632;51.962;16.116;2023-03-05T17:16:33;1.44;72.55
68648;SHT31;55632;51.962;16.116;2023-03-05T17:21:34;1.39;72.75
68648;SHT31;55632;51.962;16.116;2023-03-05T17:26:35;1.35;73.22
68648;SHT31;55632;51.962;16.116;2023-03-05T17:31:36;1.29;73.27
68648;SHT31;55632;51.962;16.116;2023-03-05T17:36:37;1.25;73.60
68648;SHT31;55632;51.962;16.116;2023-03-05T17:41:38;1.25;73.76
68648;SHT31;55632;51.962;16.116;2023-03-05T17:46:39;1.19;74.07
68648;SHT31;55632;51.962;16.116;2023-03-05T17:51:40;1.21;74.32
68648;SHT31;55632;51.962;16.116;2023-03-05T17:56:41;1.16;74.54
68648;SHT31;55632;51.962;16.116;2023-03-05T18:01:42;1.14;74.81
68648;SHT31;55632;51.962;16.116;2023-03-05T18:06:43;1.15;75.07
68648;SHT31;55632;51.962;16.116;2023-03-05T18:11:44;1.12;75.06
68648;SHT31;55632;51.962;16.116;2023-03-05T18:16:45;1.12;75.23
68648;SHT31;55632;51.962;16.116;2023-03-05T18:21:46;1.09;75.49
68648;SHT31;55632;51.962;16.116;2023-03-05T18:26:48;1.14;75.51
68648;SHT31;55632;51.962;16.116;2023-03-05T18:31:48;1.14;75.71
68648;SHT31;55632;51.962;16.116;2023-03-05T18:36:50;1.12;75.96
68648;SHT31;55632;51.962;16.116;2023-03-05T18:41:53;1.15;76.17
68648;SHT31;55632;51.962;16.116;2023-03-05T18:46:55;1.12;76.44
68648;SHT31;55632;51.962;16.116;2023-03-05T18:51:57;1.11;76.63
68648;SHT31;55632;51.962;16.116;2023-03-05T18:56:58;1.12;76.91
68648;SHT31;55632;51.962;16.116;2023-03-05T19:01:59;1.14;77.06
68648;SHT31;55632;51.962;16.116;2023-03-05T19:07:00;1.12;77.23
68648;SHT31;55632;51.962;16.116;2023-03-05T19:12:01;1.14;77.36
68648;SHT31;55632;51.962;16.116;2023-03-05T19:17:04;1.09;77.60
68648;SHT31;55632;51.962;16.116;2023-03-05T19:22:09;1.08;77.54
68648;SHT31;55632;51.962;16.116;2023-03-05T19:27:10;1.09;77.72
68648;SHT31;55632;51.962;16.116;2023-03-05T19:32:15;1.07;77.83
68648;SHT31;55632;51.962;16.116;2023-03-05T19:37:20;1.08;77.92
68648;SHT31;55632;51.962;16.116;2023-03-05T19:42:21;1.05;78.07
68648;SHT31;55632;51.962;16.116;2023-03-05T19:47:22;1.07;78.20
68648;SHT31;55632;51.962;16.116;2023-03-05T19:52:23;1.04;78.12
68648;SHT31;55632;51.962;16.116;2023-03-05T19:57:24;1.02;78.27
68648;SHT31;55632;51.962;16.116;2023-03-05T20:02:28;0.99;78.31
68648;SHT31;55632;51.962;16.116;2023-03-05T20:07:30;0.98;78.41
68648;SHT31;55632;51.962;16.116;2023-03-05T20:12:30;0.95;78.60
68648;SHT31;55632;51.962;16.116;2023-03-05T20:17:31;0.94;78.57
68648;SHT31;55632;51.962;16.116;2023-03-05T20:22:32;0.91;78.68
68648;SHT31;55632;51.962;16.116;2023-03-05T20:27:36;0.92;78.72
68648;SHT31;55632;51.962;16.116;2023-03-05T20:32:38;0.90;78.85
68648;SHT31;55632;51.962;16.116;2023-03-05T20:37:43;0.91;78.94
68648;SHT31;55632;51.962;16.116;2023-03-05T20:43:07;0.88;78.99
68648;SHT31;55632;51.962;16.116;2023-03-05T20:48:08;0.87;79.21
68648;SHT31;55632;51.962;16.116;2023-03-05T20:53:08;0.84;79.18
68648;SHT31;55632;51.962;16.116;2023-03-05T20:58:10;0.85;79.33
68648;SHT31;55632;51.962;16.116;2023-03-05T21:03:11;0.83;79.37
68648;SHT31;55632;51.962;16.116;2023-03-05T21:08:12;0.80;79.53
68648;SHT31;55632;51.962;16.116;2023-03-05T21:13:13;0.84;79.67
68648;SHT31;55632;51.962;16.116;2023-03-05T21:18:14;0.81;79.64
68648;SHT31;55632;51.962;16.116;2023-03-05T21:23:15;0.79;79.77
68648;SHT31;55632;51.962;16.116;2023-03-05T21:28:19;0.77;79.86
68648;SHT31;55632;51.962;16.116;2023-03-05T21:33:29;0.73;79.99
68648;SHT31;55632;51.962;16.116;2023-03-05T21:38:30;0.69;80.11
68648;SHT31;55632;51.962;16.116;2023-03-05T21:43:33;0.64;80.26
68648;SHT31;55632;51.962;16.116;2023-03-05T21:48:35;0.60;80.52
68648;SHT31;55632;51.962;16.116;2023-03-05T21:53:41;0.57;80.55
68648;SHT31;55632;51.962;16.116;2023-03-05T21:58:42;0.52;80.72
68648;SHT31;55632;51.962;16.116;2023-03-05T22:03:44;0.49;80.92
68648;SHT31;55632;51.962;16.116;2023-03-05T22:08:45;0.45;81.08
68648;SHT31;55632;51.962;16.116;2023-03-05T22:13:46;0.41;81.23
68648;SHT31;55632;51.962;16.116;2023-03-05T22:18:47;0.35;81.41
68648;SHT31;55632;51.962;16.116;2023-03-05T22:23:48;0.33;81.52
68648;SHT31;55632;51.962;16.116;2023-03-05T22:28:49;0.29;81.79
68648;SHT31;55632;51.962;16.116;2023-03-05T22:33:50;0.25;81.84
68648;SHT31;55632;51.962;16.116;2023-03-05T22:38:51;0.21;82.06
68648;SHT31;55632;51.962;16.116;2023-03-05T22:43:52;0.17;82.13
68648;SHT31;55632;51.962;16.116;2023-03-05T22:48:53;0.12;82.27
68648;SHT31;55632;51.962;16.116;2023-03-05T22:53:54;0.10;82.57
68648;SHT31;55632;51.962;16.116;2023-03-05T22:58:57;0.07;82.64
68648;SHT31;55632;51.962;16.116;2023-03-05T23:04:05;0.01;82.97
68648;SHT31;55632;51.962;16.116;2023-03-05T23:09:26;0.02;82.99
68648;SHT31;55632;51.962;16.116;2023-03-05T23:14:28;0.01;83.20
68648;SHT31;55632;51.962;16.116;2023-03-05T23:19:32;0.01;83.40
68648;SHT31;55632;51.962;16.116;2023-03-05T23:24:37;0.04;83.56
68648;SHT31;55632;51.962;16.116;2023-03-05T23:30:17;0.05;83.75
68648;SHT31;55632;51.962;16.116;2023-03-05T23:35:26;0.04;83.81
68648;SHT31;55632;51.962;16.116;2023-03-05T23:40:34;0.02;83.92
68648;SHT31;55632;51.962;16.116;2023-03-05T23:45:35;0.05;84.10
68648;SHT31;55632;51.962;16.116;2023-03-05T23:50:37;0.05;84.36
68648;SHT31;55632;51.962;16.116;2023-03-05T23:55:43;0.07;84.35
